East Williamson, New York
Current Conditions -  °F | °C
As of 4:54 AM on Sunday 25 Jan 2015 (Local Time) from KROC Reporting Station
Scattered Clouds Scattered Clouds  
Wind Chill: 12°   Ceiling: Unl
Heat Index: 26°   Visibility: 10mi
Dew Point: 16°   Wind: 20mph
Humidity: 66%   Direction: 300°WNW
Pressure: 29.67"   Gusts: 30mph
Location:  43.23°N, 77.15°W
Report Text: KROC 250954Z 30017G26KT 10SM FEW017 SCT035 M03/M09 A2967 RMK AO2 PK WND 30029/0942 SLP057 T10331089
Loading
Personal Weather Stations






























Interactive Weather Map New forecast layout! Learn more

10-Day Weather Forecast

Advertisements
Track Severe Weather on mobile